AirNav   Air Wisconsin pilot careers
 
 1619 users online  

43G Belleville Airport
Belleville, Michigan, USA

GOING TO BELLEVILLE?


FAA INFORMATION EFFECTIVE 26 APRIL 2018

Location

FAA Identifier: 43G
Lat/Long: 42-10-36.1450N / 083-32-44.7710W
42-10.602417N / 083-32.746183W
42.1767069 / -83.5457697
(estimated)
Elevation: 696 ft. / 212.1 m (surveyed)
Variation: 05W (1985)
From city: 3 miles SW of BELLEVILLE, MI
Time zone: UTC -4 (UTC -5 during Standard Time)
Zip code: 48197

Airport Operations

Airport use: Open to the public
Activation date: 06/1959
Control tower: no
ARTCC: CLEVELAND CENTER
FSS: LANSING FLIGHT SERVICE STATION
NOTAMs facility: LAN (NOTAM-D service available)
Attendance: IREG
WINTER OPNS VERIFY RY/SNOW CONDITIONS.
Pattern altitude: 1696 ft. MSL
Wind indicator: yes
Segmented circle: yes

Airport Communications

CTAF: 122.9
WX ASOS at YIP (4 nm N): 132.35 (734-485-9056)
WX ASOS at DTW (9 nm E): 133.675 (734-955-5015)
WX ASOS at ARB (9 nm W): PHONE 734-668-7173
WX AWOS-3 at TTF (15 nm S): 119.075 (734-384-0259)
WX AWOS-3 at ONZ (18 nm E): 119.675 (734-692-9686)

Nearby radio navigation aids

VOR radial/distance  VOR name  Freq  Var
DXOr261/8.3DETROIT VOR/DME113.4006W
CRLr336/8.7CARLETON VOR/DME115.7003W
SVMr174/14.1SALEM VORTAC114.3003W
PSIr184/31.5PONTIAC VORTAC111.0003W
YQGr268/32.2WINDSOR VOR/DME113.8006W

 
NDB name  Hdg/Dist  Freq  Var  ID
TECUMSEH067/17.423906WTCU - -.-. ..-
GROSSE ILE292/18.141907WRYS .-. -.-- ...
ADRIAN058/30.027806WADG .- -.. --.

Airport Services

Fuel available: 100LL
Parking: tiedowns
Airframe service: MAJOR
Powerplant service: MAJOR
Bottled oxygen: NONE
Bulk oxygen: NONE

Runway Information

Runway 15/33

Dimensions: 2253 x 80 ft. / 687 x 24 m
Surface: turf, in fair condition
Runway edge markings: RY 15/33 THLDS & DSPLCD THLDS MARKED WITH CONES.
RUNWAY 15  RUNWAY 33
Traffic pattern: rightleft
Displaced threshold: 853 ft.600 ft.
Obstructions: 6 ft. fence, 90 ft. from runway, 15:1 slope to clear
APCH RATIO 20:1 TO DSPLCD THLD, +89 FT TREES 1790 FT DSTC.
15 ft. road, 10 ft. from runway
APCH RATIO 21:1 TO DSPLCD THLD, +50' P-LINE 1065 FT DSTC.

Runway 18/36

Dimensions: 2157 x 160 ft. / 657 x 49 m
Surface: turf, in fair condition
RUNWAY 18  RUNWAY 36
Latitude: 42-10.819000N42-10.464000N
Longitude: 083-32.748000W083-32.738000W
Elevation: 696.0 ft.696.0 ft.
Traffic pattern: rightleft
Runway end identifier lights: nono
Obstructions: 20 ft. trees, 25 ft. from runway, 1:1 slope to clear15 ft. road, 25 ft. from runway, 1:1 slope to clear

Airport Ownership and Management from official FAA records

Ownership: Privately-owned
Owner: DANIEL C. GILBERT
7790 RAWSONVILLE RD
BELLEVILLE, MI 48111
Phone 734-612-3136
Manager: DANIEL C. GILBERT
7790 RAWSONVILLE RD
BELLEVILLE, MI 48111
Phone 734-612-3136

Airport Operational Statistics

Aircraft based on the field: 9
Single engine airplanes: 7
Ultralights: 2
    
Aircraft operations: avg 42/month *
50% transient general aviation
50% local general aviation
* for 12-month period ending 31 December 2015

Additional Remarks

SOFT DURING THAWING SEASON.
RWY 18/36 LOCAL USE ONLY - DISPLACEMENTS NOT MARKED.
FOR CD CTC DETROIT APCH AT 800-499-8181.

Instrument Procedures

There are no published instrument procedures at 43G.

Some nearby airports with instrument procedures:

KYIP - Willow Run Airport (4 nm N)
KDTW - Detroit Metropolitan Wayne County Airport (9 nm E)
KARB - Ann Arbor Municipal Airport (9 nm W)
1D2 - Canton-Plymouth-Mettetal Airport (11 nm N)
KTTF - Custer Airport (15 nm S)
KONZ - Grosse Ile Municipal Airport (18 nm E)
3TE - Al Meyers Airport (20 nm SW)
Y47 - Oakland Southwest Airport (20 nm N)
 
Loc | Ops | Rwys | IFR | FBO | Links
Com | Nav | Svcs | Stats | Notes

AirNav Hotels Sweepstakes
 
Area around 43G (Belleville Airport)
 
Road maps at: MapQuest Bing Google
 
Aerial photo
WARNING: Photo may not be current or correct
Aerial photo of 43G (Belleville Airport)
Do you have a better or more recent aerial photo of Belleville Airport that you would like to share? If so, please send us your photo.

 
Sectional chart

 
Airport distance calculator
Flying to Belleville Airport? Find the distance to fly.

From to 43G

Sunrise and sunset
Times for 21-May-2018
 Local
(UTC-4)
 Zulu
(UTC)
Morning civil twilight05:3609:36
Sunrise06:0910:09
Sunset20:5300:53
Evening civil twilight21:2601:26

Current date and time
Zulu (UTC)  21-May-2018 18:00:44
Local (UTC-4)  21-May-2018 14:00:44
 
METAR
KYIP 
3nm N 
211753Z 10005KT 10SM SCT110 19/09 A3019 RMK AO2 SLP220 T01940089 10194 20128 58015
KARB 
9nm W 
734-668-7173
211753Z 08007KT 10SM BKN110 18/09 A3018 RMK AO2 SLP218 T01780089 10178 20122 58014
KDTW 
10nm E 
211753Z 09006KT 10SM FEW070 BKN130 OVC240 19/09 A3019 RMK AO2 SLP223 T01890089 10189 20122 58018
KTTF 
16nm S 
211736Z AUTO 10011G18KT 080V160 10SM CLR 17/10 A3019 RMK AO2 T01700099
KONZ 
18nm E 
211755Z AUTO 19004KT 10SM SCT110 19/12 A3018 RMK AO2 T01860118 10191 20116
TAF
KYIP 
3nm N 
211721Z 2118/2218 09009KT P6SM SCT060 BKN120 FM211900 09008KT P6SM -SHRA SCT040 OVC070 FM212100 08007KT 4SM RA BR SCT023 OVC040 FM220000 09008KT 3SM SHRA BR SCT018 OVC023 TEMPO 2203/2206 2SM TSRA BR SCT012 OVC018CB FM220600 VRB04KT 3SM -SHRA BR BKN008 OVC015 TEMPO 2209/2212 2SM -DZ OVC008 FM221400 28005KT 4SM BR OVC022
KDTW 
10nm E 
211721Z 2118/2224 09009KT P6SM SCT060 BKN120 FM211900 09008KT P6SM -SHRA SCT040 OVC060 FM212100 08007KT 4SM RA BR SCT023 OVC040 FM220000 09008KT 3SM SHRA BR SCT018 OVC023 TEMPO 2203/2206 2SM TSRA BR SCT012 OVC018CB FM220600 VRB04KT 3SM -SHRA BR BKN008 OVC015 TEMPO 2209/2212 2SM -DZ OVC008 FM221400 28005KT 4SM BR OVC022
NOTAMs
Click for the latest NOTAMs
NOTAMs are issued by the DoD/FAA and will open in a separate window not controlled by AirNav.

 

 
 

FBO, Fuel Providers, and Aircraft Ground Support

  
 Business Name 
 
 Contact 
 
 Services / Description 
 
Fuel Prices
 
Comments
  
Larsen Air Park 713-612-3136
no information available

If you are affiliated with Larsen Air Park and would like to show here your services, contact info, web link, logo, and more, click here
100LL
AS $4.99 
 Updated 14-Jul-2015
 
   write
AS=Assisted/Self Service
Update Fuel Prices
 

Would you like to see your business listed on this page?

 If your business provides an interesting product or service to pilots, flight crews, aircraft, or users of the Belleville Airport, you should consider listing it here.  To start the listing process, click on the button below
 
Add a business
 

Other Pages about Belleville Airport

Page from the Michigan Airport Directory (PDF)
 
Update a link
 
Copyright © AirNav, LLC. All rights reserved. Privacy Policy  Contact